Time;durP1;ratioP1;P1;durP2;ratioP2;P2;SDS_P1;SDS_P2;PMS_P1;PMS_P2;Temp;Humidity;BMP_temperature;BMP_pressure;BME280_temperature;BME280_humidity;BME280_pressure;Samples;Min_cycle;Max_cycle;Signal;HPM_P1;HPM_P2
2021/08/10 00:00:09;;;;;;;;;;;;;;;22.12;64.17;97053.59;220582;262;97988;-53
2021/08/10 00:01:11;;;;;;;;;;;;;;;22.14;64.16;97051.30;220860;262;98057;-51
2021/08/10 00:02:12;;;;;;;;;;;;;;;22.13;64.29;97056.58;221451;262;96994;-54
2021/08/10 00:03:13;;;;;;;;;;;;;;;22.13;64.34;97056.58;221402;261;98837;-57
2021/08/10 00:04:15;;;;;;;;;;;;;;;22.14;64.15;97053.48;221909;261;98930;-53
2021/08/10 00:05:17;;;;;;;;;;;;;;;22.16;64.16;97056.70;221933;261;98926;-58
2021/08/10 00:06:18;;;;;;;;;;;;;;;22.10;64.43;97055.84;220697;262;98975;-57
2021/08/10 00:07:19;;;;;;;;;;;;;;;22.09;64.46;97057.80;222687;259;98950;-53
2021/08/10 00:08:21;;;;;;;;;;;;;;;22.08;64.57;97056.19;221791;261;193917;-52
2021/08/10 00:09:22;;;;;;;;;;;;;;;22.10;64.39;97053.09;222894;260;100312;-54
2021/08/10 00:10:23;;;;;;;;;;;;;;;22.10;64.53;97055.28;221993;260;98805;-56
2021/08/10 00:11:25;;;;;;;;;;;;;;;22.09;64.60;97054.23;222229;261;98961;-52
2021/08/10 00:12:26;;;;;;;;;;;;;;;22.04;64.68;97049.70;221971;261;99428;-50
2021/08/10 00:13:27;;;;;;;;;;;;;;;21.98;64.86;97049.66;221451;261;98936;-50
2021/08/10 00:14:29;;;;;;;;;;;;;;;22.02;64.83;97053.95;221654;261;100232;-51
2021/08/10 00:15:30;;;;;;;;;;;;;;;22.09;64.69;97055.61;221183;261;98993;-51
2021/08/10 00:16:31;;;;;;;;;;;;;;;22.10;64.58;97052.52;222231;261;99422;-49
2021/08/10 00:17:33;;;;;;;;;;;;;;;22.12;64.57;97049.45;222087;261;98961;-50
2021/08/10 00:18:34;;;;;;;;;;;;;;;22.09;64.66;97048.14;222259;261;98960;-51
2021/08/10 00:19:35;;;;;;;;;;;;;;;22.05;64.77;97047.75;222657;260;98942;-52
2021/08/10 00:20:37;;;;;;;;;;;;;;;21.97;65.07;97047.23;223116;260;98966;-52
2021/08/10 00:21:38;;;;;;;;;;;;;;;21.95;65.13;97044.24;222629;260;98937;-54
2021/08/10 00:22:39;;;;;;;;;;;;;;;22.01;65.02;97044.03;221942;261;98946;-56
2021/08/10 00:23:41;;;;;;;;;;;;;;;21.98;65.16;97044.14;221371;261;97918;-49
2021/08/10 00:24:42;;;;;;;;;;;;;;;21.93;65.49;97047.91;221104;261;100398;-52
2021/08/10 00:25:43;;;;;;;;;;;;;;;21.93;65.46;97041.02;221498;261;98929;-48
2021/08/10 00:26:45;;;;;;;;;;;;;;;21.99;65.28;97042.18;221285;261;98961;-54
2021/08/10 00:27:46;;;;;;;;;;;;;;;22.12;64.78;97042.55;221552;261;99257;-53
2021/08/10 00:28:47;;;;;;;;;;;;;;;22.15;64.78;97046.00;221281;261;98937;-57
2021/08/10 00:29:49;;;;;;;;;;;;;;;22.19;64.78;97049.13;221186;261;97657;-52
2021/08/10 00:30:50;;;;;;;;;;;;;;;22.09;64.99;97051.47;221283;261;98012;-51
2021/08/10 00:31:51;;;;;;;;;;;;;;;;;;221251;261;98937;-48
2021/08/10 00:32:52;;;;;;;;;;;;;;;22.02;65.17;97042.91;220251;263;97932;-55
2021/08/10 00:33:54;;;;;;;;;;;;;;;22.03;65.17;97047.28;220422;262;98998;-52
2021/08/10 00:34:55;;;;;;;;;;;;;;;21.98;65.26;97044.14;221384;262;99019;-48
2021/08/10 00:35:58;;;;;;;;;;;;;;;21.95;65.34;97042.86;221113;262;98938;-49
2021/08/10 00:36:59;;;;;;;;;;;;;;;21.97;65.35;97045.86;220777;262;192502;-56
2021/08/10 00:38:01;;;;;;;;;;;;;;;21.93;65.45;97041.02;221330;262;98930;-52
2021/08/10 00:39:02;;;;;;;;;;;;;;;21.94;65.43;97041.25;221203;262;98949;-55
2021/08/10 00:40:03;;;;;;;;;;;;;;;21.92;65.57;97044.92;221350;263;98014;-54
2021/08/10 00:41:05;;;;;;;;;;;;;;;21.99;65.56;97040.80;221033;263;98023;-49
2021/08/10 00:42:06;;;;;;;;;;;;;;;22.01;65.56;97041.27;221294;262;97973;-51
2021/08/10 00:43:07;;;;;;;;;;;;;;;22.02;65.41;97038.77;220402;262;98000;-51
2021/08/10 00:44:10;;;;;;;;;;;;;;;21.95;65.59;97040.10;221473;261;98894;-51
2021/08/10 00:45:11;;;;;;;;;;;;;;;22.00;65.39;97036.89;221456;261;98967;-52
2021/08/10 00:46:12;;;;;;;;;;;;;;;22.00;65.37;97036.89;221634;261;98937;-52
2021/08/10 00:47:14;;;;;;;;;;;;;;;22.00;65.47;97041.84;220464;263;97644;-49
2021/08/10 00:48:16;;;;;;;;;;;;;;;22.02;65.44;97038.77;219817;263;98016;-53
2021/08/10 00:49:17;;;;;;;;;;;;;;;22.01;65.45;97042.65;219862;263;278013;-50
2021/08/10 00:50:19;;;;;;;;;;;;;;;21.99;65.55;97042.18;219933;263;196291;-47
2021/08/10 00:51:20;;;;;;;;;;;;;;;22.00;65.52;97042.41;220014;263;194041;-50
2021/08/10 00:52:21;;;;;;;;;;;;;;;21.98;65.59;97042.75;220232;263;98037;-54
2021/08/10 00:53:23;;;;;;;;;;;;;;;21.92;65.79;97048.25;220219;263;98974;-53
2021/08/10 00:54:24;;;;;;;;;;;;;;;21.94;65.73;97042.63;220321;263;99516;-50
2021/08/10 00:55:26;;;;;;;;;;;;;;;21.95;65.72;97043.44;220180;263;98934;-54
2021/08/10 00:56:27;;;;;;;;;;;;;;;21.94;65.72;97044.01;220411;263;98994;-51
2021/08/10 00:57:28;;;;;;;;;;;;;;;21.91;65.79;97043.88;220048;263;97990;-51
2021/08/10 00:58:31;;;;;;;;;;;;;;;21.91;65.82;97041.92;219940;263;193024;-55
2021/08/10 00:59:32;;;;;;;;;;;;;;;21.91;65.80;97050.78;220799;263;99555;-49
2021/08/10 01:00:33;;;;;;;;;;;;;;;21.88;65.91;97042.58;220816;263;98971;-55
2021/08/10 01:01:35;;;;;;;;;;;;;;;21.90;65.82;97045.00;221276;262;98941;-52
2021/08/10 01:02:36;;;;;;;;;;;;;;;21.92;65.77;97049.06;222165;261;99072;-49
2021/08/10 01:03:37;;;;;;;;;;;;;;;21.93;65.72;97051.25;222469;261;97955;-55
2021/08/10 01:04:39;;;;;;;;;;;;;;;21.89;65.85;97048.91;220839;262;194676;-50
2021/08/10 01:05:40;;;;;;;;;;;;;;;21.95;65.65;97051.72;221267;262;195199;-51
2021/08/10 01:06:41;;;;;;;;;;;;;;;21.95;65.62;97052.52;220586;262;97933;-53
2021/08/10 01:07:43;;;;;;;;;;;;;;;21.90;65.81;97045.83;221112;262;98937;-55
2021/08/10 01:08:44;;;;;;;;;;;;;;;21.89;65.78;97045.56;221075;262;99064;-54
2021/08/10 01:09:45;;;;;;;;;;;;;;;21.88;65.79;97039.81;222207;261;97921;-54
2021/08/10 01:10:47;;;;;;;;;;;;;;;21.96;65.59;97051.95;222258;261;98984;-52
2021/08/10 01:11:48;;;;;;;;;;;;;;;21.98;65.58;97047.47;221369;262;99445;-52
2021/08/10 01:12:50;;;;;;;;;;;;;;;21.93;65.67;97041.02;221934;261;193558;-54
2021/08/10 01:13:51;;;;;;;;;;;;;;;21.94;65.61;97045.39;221369;262;99067;-49
2021/08/10 01:14:52;;;;;;;;;;;;;;;21.98;65.56;97051.61;221858;261;98013;-47
2021/08/10 01:15:54;;;;;;;;;;;;;;;21.94;65.69;97046.77;221785;262;98014;-50
2021/08/10 01:16:55;;;;;;;;;;;;;;;21.98;65.57;97046.09;222246;261;98147;-53
2021/08/10 01:17:57;;;;;;;;;;;;;;;21.95;65.69;97046.20;221584;262;97350;-54
2021/08/10 01:18:58;;;;;;;;;;;;;;;21.91;65.75;97048.83;220875;262;98954;-52
2021/08/10 01:19:59;;;;;;;;;;;;;;;21.90;65.78;97045.83;220942;262;194217;-55
2021/08/10 01:21:01;;;;;;;;;;;;;;;21.92;65.73;97038.02;221991;261;98938;-51
2021/08/10 01:22:02;;;;;;;;;;;;;;;21.92;65.77;97040.78;220334;262;98862;-49
2021/08/10 01:23:04;;;;;;;;;;;;;;;21.93;65.75;97038.83;221086;262;98954;-50
2021/08/10 01:24:05;;;;;;;;;;;;;;;21.93;65.79;97040.21;221167;262;98935;-52
2021/08/10 01:25:06;;;;;;;;;;;;;;;21.94;65.71;97034.92;221352;262;100276;-45
2021/08/10 01:26:08;;;;;;;;;;;;;;;21.93;65.64;97040.21;221100;262;98952;-53
2021/08/10 01:27:09;;;;;;;;;;;;;;;21.92;65.68;97038.02;222000;261;98859;-53
2021/08/10 01:28:10;;;;;;;;;;;;;;;21.90;65.74;97038.09;222398;261;97969;-52
2021/08/10 01:29:12;;;;;;;;;;;;;;;21.94;65.65;97037.11;221693;262;98954;-53
2021/08/10 01:30:13;;;;;;;;;;;;;;;21.89;65.80;97039.24;222404;261;98937;-55
2021/08/10 01:31:14;;;;;;;;;;;;;;;21.89;65.79;97037.29;221125;262;98953;-53
2021/08/10 01:32:16;;;;;;;;;;;;;;;21.82;66.02;97038.41;221470;261;98811;-52
2021/08/10 01:33:17;;;;;;;;;;;;;;;21.85;65.90;97037.73;221664;260;98937;-57
2021/08/10 01:34:18;;;;;;;;;;;;;;;21.84;66.04;97039.45;221069;261;97968;-52
2021/08/10 01:35:20;;;;;;;;;;;;;;;21.81;66.05;97034.05;220462;262;98040;-55
2021/08/10 01:36:21;;;;;;;;;;;;;;;21.86;65.97;97037.16;221416;260;98926;-52
2021/08/10 01:37:22;;;;;;;;;;;;;;;21.83;66.01;97028.19;221313;262;98935;-54
2021/08/10 01:38:24;;;;;;;;;;;;;;;21.87;65.86;97027.73;220128;263;99452;-53
2021/08/10 01:39:25;;;;;;;;;;;;;;;21.91;65.75;97023.99;221427;262;98927;-51
2021/08/10 01:40:26;;;;;;;;;;;;;;;21.87;65.86;97020.84;221291;262;97904;-50
2021/08/10 01:41:28;;;;;;;;;;;;;;;21.91;65.70;97027.33;222249;261;98906;-50
2021/08/10 01:42:29;;;;;;;;;;;;;;;22.01;65.60;97024.17;221930;261;97961;-61
2021/08/10 01:43:30;;;;;;;;;;;;;;;22.00;65.73;97025.28;222976;260;98937;-61
2021/08/10 01:44:32;;;;;;;;;;;;;;;22.00;65.79;97025.28;221533;262;98936;-53
2021/08/10 01:45:37;;;;;;;;;;;;;;;21.95;65.69;97023.55;223284;260;98927;-59
2021/08/10 01:46:36;;;;;;;;;;;;;;;21.94;65.76;97026.07;221880;260;245315;-56
2021/08/10 01:47:37;;;;;;;;;;;;;;;21.91;65.91;97022.61;221139;262;195486;-56
2021/08/10 01:48:39;;;;;;;;;;;;;;;21.87;66.04;97025.78;221212;261;195393;-57
2021/08/10 01:49:40;;;;;;;;;;;;;;;21.87;66.05;97024.41;221496;262;98937;-51
2021/08/10 01:50:41;;;;;;;;;;;;;;;21.90;66.01;97021.54;221508;261;98872;-56
2021/08/10 01:51:43;;;;;;;;;;;;;;;21.94;66.03;97015.61;221540;262;98909;-57
2021/08/10 01:52:44;;;;;;;;;;;;;;;21.95;65.91;97019.41;222278;261;97958;-54
2021/08/10 01:53:46;;;;;;;;;;;;;;;21.93;65.87;97014.80;221621;262;98082;-57
2021/08/10 01:54:47;;;;;;;;;;;;;;;22.01;65.99;97008.16;222151;261;97525;-61
2021/08/10 01:55:48;;;;;;;;;;;;;;;22.06;65.85;97010.72;221302;262;193285;-57
2021/08/10 01:56:50;;;;;;;;;;;;;;;22.02;65.63;97006.46;222420;261;98759;-55
2021/08/10 01:57:51;;;;;;;;;;;;;;;21.99;65.71;97010.45;220911;263;97991;-54
2021/08/10 01:58:53;;;;;;;;;;;;;;;22.02;65.70;97008.41;221570;262;97081;-57
2021/08/10 01:59:54;;;;;;;;;;;;;;;21.98;65.90;97001.94;221299;262;98945;-54
2021/08/10 02:00:57;;;;;;;;;;;;;;;22.15;65.71;97009.55;222274;261;100647;-61
2021/08/10 02:01:58;;;;;;;;;;;;;;;22.12;65.59;97003.91;221306;262;194602;-53
2021/08/10 02:02:59;;;;;;;;;;;;;;;22.14;65.51;97005.74;222220;261;192013;-58
2021/08/10 02:04:01;;;;;;;;;;;;;;;22.12;65.44;96994.23;221366;262;97044;-52
2021/08/10 02:05:02;;;;;;;;;;;;;;;22.12;65.49;97001.14;220257;262;100586;-52
2021/08/10 02:07:06;;;;;;;;;;;;;;;22.21;65.40;97001.27;227091;255;69947;-61
2021/08/10 02:08:07;;;;;;;;;;;;;;;22.19;65.41;97000.81;221885;261;189393;-61
2021/08/10 02:09:08;;;;;;;;;;;;;;;22.20;65.41;97001.04;221527;261;277405;-57
2021/08/10 02:10:09;;;;;;;;;;;;;;;22.21;65.39;97001.27;222306;261;195534;-56
2021/08/10 02:11:14;;;;;;;;;;;;;;;22.25;65.33;96998.66;222905;260;194010;-61
2021/08/10 02:14:53;;;;;;;;;;;;;;;21.96;69.17;96994.00;221077;260;157409;-56
2021/08/10 02:15:55;;;;;;;;;;;;;;;21.95;66.45;96995.95;221066;261;192859;-59
2021/08/10 02:16:56;;;;;;;;;;;;;;;22.02;66.05;97000.94;221477;260;97991;-59
2021/08/10 02:17:57;;;;;;;;;;;;;;;22.07;65.71;97003.52;221428;262;98865;-58
2021/08/10 02:18:59;;;;;;;;;;;;;;;22.09;65.73;97004.55;221178;261;98109;-61
2021/08/10 02:20:00;;;;;;;;;;;;;;;22.11;65.58;97007.78;223319;260;97957;-62
2021/08/10 02:21:01;;;;;;;;;;;;;;;22.09;66.42;97009.50;221140;261;97064;-59
2021/08/10 02:22:03;;;;;;;;;;;;;;;22.01;65.96;97004.02;222157;260;98973;-62
2021/08/10 02:23:05;;;;;;;;;;;;;;;22.10;65.76;97006.97;222108;261;98964;-61
2021/08/10 02:24:06;;;;;;;;;;;;;;;22.17;65.59;97010.58;222506;260;98096;-61
2021/08/10 02:25:07;;;;;;;;;;;;;;;22.19;65.52;97008.28;221230;261;98030;-60
2021/08/10 02:26:09;;;;;;;;;;;;;;;22.17;65.52;97005.06;221661;261;99335;-58
2021/08/10 02:27:10;;;;;;;;;;;;;;;22.17;65.50;97000.92;221376;261;99053;-62
2021/08/10 02:28:11;;;;;;;;;;;;;;;22.20;65.50;97006.56;221628;261;98974;-62
2021/08/10 02:29:13;;;;;;;;;;;;;;;22.16;65.47;97007.02;220983;262;195420;-61
2021/08/10 02:30:14;;;;;;;;;;;;;;;22.26;65.27;97005.80;221012;262;193079;-58
2021/08/10 02:31:16;;;;;;;;;;;;;;;22.23;65.76;97012.00;221458;261;98039;-61
2021/08/10 02:32:17;;;;;;;;;;;;;;;22.21;65.51;97012.89;221401;262;98966;-63
2021/08/10 02:33:18;;;;;;;;;;;;;;;22.26;65.42;97009.13;221138;262;98937;-62
2021/08/10 02:34:20;;;;;;;;;;;;;;;22.25;65.20;97006.95;221035;261;99561;-62
2021/08/10 02:35:21;;;;;;;;;;;;;;;22.28;65.24;97008.22;221555;261;97951;-62
2021/08/10 02:36:22;;;;;;;;;;;;;;;22.23;65.26;97011.43;221156;261;98891;-62
2021/08/10 02:37:24;;;;;;;;;;;;;;;22.27;65.23;97001.89;220858;262;98969;-62
2021/08/10 02:38:25;;;;;;;;;;;;;;;22.25;65.15;97003.38;220912;262;98966;-60
2021/08/10 02:39:27;;;;;;;;;;;;;;;22.26;65.19;96997.52;220958;262;98937;-61
2021/08/10 02:40:28;;;;;;;;;;;;;;;22.32;65.11;97000.86;221192;262;98078;-57
2021/08/10 02:41:30;;;;;;;;;;;;;;;22.39;64.97;97001.94;222914;260;98120;-59
2021/08/10 02:42:31;;;;;;;;;;;;;;;22.44;64.83;97000.36;221602;261;97910;-62
2021/08/10 02:43:32;;;;;;;;;;;;;;;22.46;64.57;97004.96;221353;261;99499;-61
2021/08/10 02:44:34;;;;;;;;;;;;;;;22.53;64.75;96998.30;221275;261;193496;-59
2021/08/10 02:45:36;;;;;;;;;;;;;;;22.43;64.95;96998.72;220141;263;98038;-61
2021/08/10 02:46:37;;;;;;;;;;;;;;;22.55;64.76;96999.94;221235;260;99197;-61
2021/08/10 02:47:38;;;;;;;;;;;;;;;22.38;64.86;97003.08;221693;261;97984;-60
2021/08/10 02:48:40;;;;;;;;;;;;;;;22.36;65.12;96995.72;221837;260;98015;-58
2021/08/10 02:49:41;;;;;;;;;;;;;;;22.45;64.72;97002.55;219565;264;98950;-61
2021/08/10 02:50:42;;;;;;;;;;;;;;;22.50;64.56;96996.80;221092;261;195481;-59
2021/08/10 02:51:44;;;;;;;;;;;;;;;22.53;64.54;96999.67;221319;261;194784;-58
2021/08/10 02:52:45;;;;;;;;;;;;;;;22.47;64.47;96995.53;221733;261;98960;-60
2021/08/10 02:53:47;;;;;;;;;;;;;;;22.44;64.57;96989.31;221236;261;98972;-56
2021/08/10 02:54:48;;;;;;;;;;;;;;;22.45;64.55;96995.06;222015;261;98956;-58
2021/08/10 02:55:49;;;;;;;;;;;;;;;22.49;64.68;96996.56;221310;260;98869;-58
2021/08/10 02:56:50;;;;;;;;;;;;;;;22.51;64.76;96999.21;222455;261;98965;-59
2021/08/10 02:57:52;;;;;;;;;;;;;;;22.55;64.43;97003.50;222996;260;98959;-58
2021/08/10 02:58:53;;;;;;;;;;;;;;;22.42;65.68;97000.44;220949;261;98042;-62
2021/08/10 02:59:55;;;;;;;;;;;;;;;22.40;64.88;97000.78;221301;261;98028;-57
2021/08/10 03:00:56;;;;;;;;;;;;;;;22.47;64.66;97003.81;221353;261;99467;-57
2021/08/10 03:01:57;;;;;;;;;;;;;;;22.42;64.95;97001.25;221043;262;98872;-60
2021/08/10 03:02:59;;;;;;;;;;;;;;;22.40;64.63;96999.41;220496;262;98973;-58
2021/08/10 03:04:00;;;;;;;;;;;;;;;22.43;64.91;97004.23;221493;262;97931;-60
2021/08/10 03:05:45;;;;;;;;;;;;;;;22.53;64.57;96996.11;226641;255;69942;-61
2021/08/10 03:06:46;;;;;;;;;;;;;;;22.50;64.45;96994.84;223395;259;191281;-62
2021/08/10 03:07:48;;;;;;;;;;;;;;;22.62;64.11;96994.64;220942;260;274941;-61
2021/08/10 03:08:49;;;;;;;;;;;;;;;22.70;64.29;96998.70;222370;261;194891;-60
2021/08/10 03:09:50;;;;;;;;;;;;;;;22.56;64.38;96997.41;222333;261;193537;-57
2021/08/10 03:10:52;;;;;;;;;;;;;;;22.44;64.46;96993.45;222357;261;98933;-61
2021/08/10 03:11:53;;;;;;;;;;;;;;;22.38;64.70;96995.38;222287;261;99428;-63
2021/08/10 03:12:54;;;;;;;;;;;;;;;22.44;65.05;96994.84;222258;261;98964;-67
2021/08/10 03:13:56;;;;;;;;;;;;;;;22.59;64.33;96992.57;221330;262;100268;-62
2021/08/10 03:14:57;;;;;;;;;;;;;;;22.61;64.10;96990.27;221884;261;98945;-63
2021/08/10 03:15:58;;;;;;;;;;;;;;;22.71;63.95;96988.45;220697;262;98083;-63
2021/08/10 03:17:00;;;;;;;;;;;;;;;22.76;63.80;96985.48;220667;262;193186;-61
2021/08/10 03:18:01;;;;;;;;;;;;;;;22.72;63.84;96981.20;221739;262;98937;-61
2021/08/10 03:19:04;;;;;;;;;;;;;;;22.63;63.86;96983.82;221975;262;98150;-62
2021/08/10 03:20:05;;;;;;;;;;;;;;;22.63;63.89;96985.20;222268;260;98972;-64
2021/08/10 03:21:08;;;;;;;;;;;;;;;22.69;63.84;96987.42;222740;260;98970;-64
2021/08/10 03:22:10;;;;;;;;;;;;;;;22.67;63.81;96984.77;222596;260;275454;-64
2021/08/10 03:23:12;;;;;;;;;;;;;;;22.74;63.66;96983.61;222736;260;195891;-63
2021/08/10 03:24:13;;;;;;;;;;;;;;;22.80;63.57;96987.79;222769;260;194003;-64
2021/08/10 03:25:14;;;;;;;;;;;;;;;22.79;63.57;96984.80;222250;260;97942;-63
2021/08/10 03:26:16;;;;;;;;;;;;;;;22.68;65.03;96983.62;221352;261;98019;-56
2021/08/10 03:27:17;;;;;;;;;;;;;;;22.63;63.89;96985.20;221643;262;97048;-56
2021/08/10 03:28:18;;;;;;;;;;;;;;;22.48;64.18;96990.81;222071;260;98947;-57
2021/08/10 03:29:20;;;;;;;;;;;;;;;22.48;64.15;96990.23;222016;262;98961;-53
2021/08/10 03:30:21;;;;;;;;;;;;;;;22.42;64.66;96986.62;222454;260;98995;-54
2021/08/10 03:31:23;;;;;;;;;;;;;;;22.51;64.34;96988.73;220956;262;194196;-61
2021/08/10 03:32:24;;;;;;;;;;;;;;;22.42;64.58;96981.91;221399;262;98983;-60
2021/08/10 03:33:25;;;;;;;;;;;;;;;22.37;64.56;96984.09;220976;262;99036;-60
2021/08/10 03:34:27;;;;;;;;;;;;;;;22.37;64.59;96984.09;221754;262;98950;-59
2021/08/10 03:35:28;;;;;;;;;;;;;;;22.37;64.59;96980.77;220553;262;97703;-60
2021/08/10 03:36:29;;;;;;;;;;;;;;;22.29;64.55;96978.88;220859;262;98019;-58
2021/08/10 03:37:31;;;;;;;;;;;;;;;22.28;64.59;96971.75;221034;262;97971;-54
2021/08/10 03:38:32;;;;;;;;;;;;;;;22.30;64.61;96973.59;220985;262;194958;-55
2021/08/10 03:39:34;;;;;;;;;;;;;;;22.37;64.41;96968.91;221089;262;98866;-56
2021/08/10 03:40:35;;;;;;;;;;;;;;;22.32;64.46;96972.67;220632;262;98937;-59
2021/08/10 03:41:37;;;;;;;;;;;;;;;22.35;64.52;96967.07;221969;262;99477;-51
2021/08/10 03:42:38;;;;;;;;;;;;;;;22.30;64.56;96969.45;220554;262;98937;-56
2021/08/10 03:43:39;;;;;;;;;;;;;;;22.34;65.33;96970.98;221955;262;98959;-55
2021/08/10 03:44:44;;;;;;;;;;;;;;;22.36;64.43;96966.72;221517;262;99461;-58
2021/08/10 03:45:45;;;;;;;;;;;;;;;22.35;65.75;96965.11;221441;262;193984;-60
2021/08/10 03:46:46;;;;;;;;;;;;;;;22.36;64.51;96969.48;221710;262;99341;-59
2021/08/10 03:47:48;;;;;;;;;;;;;;;22.45;65.37;96970.21;221355;262;97960;-62
2021/08/10 03:48:49;;;;;;;;;;;;;;;22.44;64.19;96972.74;221632;262;99011;-58
2021/08/10 03:49:51;;;;;;;;;;;;;;;22.39;64.43;96968.80;221453;262;98951;-63
2021/08/10 03:50:52;;;;;;;;;;;;;;;22.34;64.41;96966.27;222080;260;98006;-59
2021/08/10 03:51:54;;;;;;;;;;;;;;;22.32;64.58;96968.53;220902;262;98076;-57
2021/08/10 03:52:55;;;;;;;;;;;;;;;22.24;64.71;96973.59;221682;262;194087;-56
2021/08/10 03:53:57;;;;;;;;;;;;;;;22.12;65.77;96973.53;221643;262;98907;-53
2021/08/10 03:54:58;;;;;;;;;;;;;;;22.21;64.89;96976.42;221255;262;98966;-65
2021/08/10 03:55:59;;;;;;;;;;;;;;;22.34;64.65;96974.55;221644;262;99597;-53
2021/08/10 03:57:01;;;;;;;;;;;;;;;22.40;64.53;96973.17;222595;260;98943;-56
2021/08/10 03:58:02;;;;;;;;;;;;;;;22.44;64.22;96969.98;222813;261;99601;-55
2021/08/10 03:59:03;;;;;;;;;;;;;;;22.49;64.14;96969.75;222260;261;99037;-52
2021/08/10 04:00:06;;;;;;;;;;;;;;;22.45;63.99;96965.27;221293;262;98908;-59
2021/08/10 04:01:07;;;;;;;;;;;;;;;22.49;64.01;96975.27;221401;262;98947;-60
2021/08/10 04:02:09;;;;;;;;;;;;;;;22.46;63.87;96968.25;221369;262;98973;-51
2021/08/10 04:03:10;;;;;;;;;;;;;;;22.47;64.02;96971.25;221703;262;97991;-54
2021/08/10 04:04:12;;;;;;;;;;;;;;;22.49;63.85;96971.12;222157;260;99001;-55
2021/08/10 04:05:13;;;;;;;;;;;;;;;22.55;63.71;96977.84;222222;261;277405;-52
2021/08/10 04:06:14;;;;;;;;;;;;;;;22.57;63.73;96968.63;221788;261;195742;-57
2021/08/10 04:07:16;;;;;;;;;;;;;;;22.53;63.72;96966.53;221085;262;194038;-54
2021/08/10 04:08:17;;;;;;;;;;;;;;;22.59;63.61;96967.70;221535;262;98949;-54
2021/08/10 04:09:21;;;;;;;;;;;;;;;22.59;63.53;96973.23;221085;262;99037;-59
2021/08/10 04:10:21;;;;;;;;;;;;;;;22.58;63.55;96973.00;221711;262;66858;-58
2021/08/10 04:11:23;;;;;;;;;;;;;;;22.62;63.62;96969.78;220177;263;98027;-56
2021/08/10 04:12:24;;;;;;;;;;;;;;;22.61;63.51;96972.31;219524;263;276858;-56
2021/08/10 04:13:26;;;;;;;;;;;;;;;22.62;63.41;96971.16;221387;262;195638;-59
2021/08/10 04:14:27;;;;;;;;;;;;;;;22.63;63.49;96974.16;221157;261;193791;-56
2021/08/10 04:15:28;;;;;;;;;;;;;;;22.66;63.35;96973.49;221582;262;99011;-54
2021/08/10 04:16:30;;;;;;;;;;;;;;;22.56;63.46;96978.06;221782;260;98926;-60
2021/08/10 04:17:31;;;;;;;;;;;;;;;22.62;63.42;96974.73;221687;261;98925;-52
2021/08/10 04:18:32;;;;;;;;;;;;;;;22.63;63.43;96970.01;221342;262;98159;-52
2021/08/10 04:19:34;;;;;;;;;;;;;;;22.59;63.32;96976.00;221979;262;98002;-57
2021/08/10 04:20:36;;;;;;;;;;;;;;;22.62;63.34;96973.92;220836;262;195492;-55
2021/08/10 04:21:37;;;;;;;;;;;;;;;22.64;63.32;96972.42;220764;262;195348;-54
2021/08/10 04:22:38;;;;;;;;;;;;;;;22.64;63.26;96975.19;222107;262;98951;-55
2021/08/10 04:23:40;;;;;;;;;;;;;;;22.60;63.26;96983.94;221475;260;98963;-53
2021/08/10 04:24:41;;;;;;;;;;;;;;;22.59;63.35;96980.95;223005;260;99014;-57
2021/08/10 04:25:42;;;;;;;;;;;;;;;22.53;63.38;96982.30;222765;260;98885;-59
2021/08/10 04:26:44;;;;;;;;;;;;;;;22.52;63.42;96983.45;223161;260;98786;-52
2021/08/10 04:27:45;;;;;;;;;;;;;;;22.52;63.39;96977.34;222841;260;98937;-59
2021/08/10 04:28:46;;;;;;;;;;;;;;;22.52;63.47;96982.87;222279;260;99026;-58
2021/08/10 04:29:48;;;;;;;;;;;;;;;22.63;63.16;96981.06;223069;260;98003;-58
2021/08/10 04:30:49;;;;;;;;;;;;;;;22.56;63.32;96978.06;222771;260;188750;-53
2021/08/10 04:31:50;;;;;;;;;;;;;;;22.48;63.51;96980.56;222635;260;276937;-56
2021/08/10 04:32:52;;;;;;;;;;;;;;;22.44;63.65;96980.22;222721;260;195648;-52
2021/08/10 04:33:53;;;;;;;;;;;;;;;22.48;63.60;96979.19;222688;260;194005;-54
2021/08/10 04:34:54;;;;;;;;;;;;;;;22.43;63.67;96980.77;223048;260;98948;-54
2021/08/10 04:35:56;;;;;;;;;;;;;;;22.47;63.57;96981.72;222791;260;98952;-54
2021/08/10 04:36:57;;;;;;;;;;;;;;;22.46;63.53;96983.44;222963;260;100366;-52
2021/08/10 04:37:58;;;;;;;;;;;;;;;22.45;63.58;96982.64;222361;260;99026;-59
2021/08/10 04:39:00;;;;;;;;;;;;;;;22.39;63.68;96979.03;222335;261;98906;-55
2021/08/10 04:40:02;;;;;;;;;;;;;;;22.43;63.63;96982.72;221904;261;98996;-57
2021/08/10 04:41:03;;;;;;;;;;;;;;;22.40;63.63;96979.27;221468;261;193237;-58
2021/08/10 04:42:04;;;;;;;;;;;;;;;22.45;63.67;96981.26;221667;262;98996;-53
2021/08/10 04:43:06;;;;;;;;;;;;;;;22.39;63.63;96986.75;221188;262;98042;-53
2021/08/10 04:44:10;;;;;;;;;;;;;;;22.42;63.66;96981.11;221917;262;99046;-54
2021/08/10 04:45:10;;;;;;;;;;;;;;;22.32;63.83;96982.91;220702;262;66703;-54
2021/08/10 04:46:11;;;;;;;;;;;;;;;22.29;63.84;96987.17;220865;262;278268;-55
2021/08/10 04:47:13;;;;;;;;;;;;;;;22.31;63.86;96983.48;221768;262;196150;-50
2021/08/10 04:48:14;;;;;;;;;;;;;;;22.30;63.89;96983.25;222313;261;191980;-52
2021/08/10 04:49:15;;;;;;;;;;;;;;;22.38;63.79;96982.37;222844;261;97072;-55
2021/08/10 04:50:17;;;;;;;;;;;;;;;22.31;63.87;96984.86;222587;261;98897;-53
2021/08/10 04:51:18;;;;;;;;;;;;;;;22.30;63.87;96981.88;222851;259;98936;-50
2021/08/10 04:52:21;;;;;;;;;;;;;;;22.27;63.93;96979.80;222578;261;98089;-56
2021/08/10 04:53:23;;;;;;;;;;;;;;;22.24;64.00;96977.72;222339;261;277430;-54
2021/08/10 04:54:24;;;;;;;;;;;;;;;22.26;63.96;96974.63;221752;261;195660;-53
2021/08/10 04:55:25;;;;;;;;;;;;;;;22.28;63.92;96978.66;221015;262;193670;-54
2021/08/10 04:56:27;;;;;;;;;;;;;;;22.24;63.89;96973.59;220666;263;98938;-56
2021/08/10 04:58:06;;;;;;;;;;;;;;;22.32;64.05;96968.53;225370;255;69968;-53
2021/08/10 04:59:08;;;;;;;;;;;;;;;22.46;63.74;96973.78;223598;259;189370;-55
2021/08/10 05:00:09;;;;;;;;;;;;;;;22.39;63.81;96969.38;221732;261;276476;-58
2021/08/10 05:01:10;;;;;;;;;;;;;;;22.31;63.90;96961.40;222114;260;195525;-54
2021/08/10 05:02:12;;;;;;;;;;;;;;;22.30;63.97;96970.83;221470;261;194050;-56
2021/08/10 05:03:13;;;;;;;;;;;;;;;22.31;64.02;96970.25;222114;260;98045;-55
2021/08/10 05:04:14;;;;;;;;;;;;;;;22.44;64.87;96976.08;221810;261;189669;-51
2021/08/10 05:05:16;;;;;;;;;;;;;;;22.38;64.07;96965.80;221719;261;277516;-51
2021/08/10 05:06:17;;;;;;;;;;;;;;;22.22;64.70;96962.88;221767;261;197047;-50
2021/08/10 05:07:18;;;;;;;;;;;;;;;22.20;64.39;96962.97;221735;261;193912;-52
2021/08/10 05:08:20;;;;;;;;;;;;;;;22.21;64.41;96960.44;223194;260;98923;-53
2021/08/10 05:09:21;;;;;;;;;;;;;;;22.26;64.32;96965.77;222206;261;98933;-56
2021/08/10 05:10:22;;;;;;;;;;;;;;;22.32;64.20;96963.01;222445;261;98948;-57
2021/08/10 05:11:24;;;;;;;;;;;;;;;22.34;64.11;96969.02;222288;261;98946;-55
2021/08/10 05:13:07;;;;;;;;;;;;;;;22.19;64.54;96970.45;227233;255;70343;-57
2021/08/10 05:14:08;;;;;;;;;;;;;;;22.27;64.44;96962.43;222558;260;190938;-57
2021/08/10 05:15:10;;;;;;;;;;;;;;;22.27;64.48;96960.47;222379;260;276415;-56
2021/08/10 05:16:11;;;;;;;;;;;;;;;22.33;64.41;96961.05;222755;260;194544;-60
2021/08/10 05:17:13;;;;;;;;;;;;;;;22.34;64.50;96957.17;222759;260;192360;-57
2021/08/10 05:18:15;;;;;;;;;;;;;;;22.33;64.37;96956.37;222763;260;98945;-54
2021/08/10 05:19:17;;;;;;;;;;;;;;;22.36;64.39;96948.77;222011;260;98108;-53
2021/08/10 05:20:19;;;;;;;;;;;;;;;22.44;64.24;96947.89;222483;260;98958;-59
2021/08/10 05:21:20;;;;;;;;;;;;;;;22.39;64.26;96952.23;222603;260;98936;-52
2021/08/10 05:22:22;;;;;;;;;;;;;;;22.44;64.20;96953.98;222758;260;277792;-57
2021/08/10 05:23:23;;;;;;;;;;;;;;;22.49;64.13;96957.90;222884;260;193770;-55
2021/08/10 05:24:24;;;;;;;;;;;;;;;22.53;64.04;96958.23;221779;261;194347;-55